createdAt,value
2023-01-12T00:01:51.659Z,61.04
2023-01-12T00:04:18.963Z,62.09
2023-01-12T00:06:46.491Z,61.74
2023-01-12T00:09:13.428Z,61.70
2023-01-12T00:11:41.022Z,62.10
2023-01-12T00:14:09.523Z,62.63
2023-01-12T00:16:39.617Z,62.60
2023-01-12T00:19:18.340Z,63.00
2023-01-12T00:22:05.433Z,62.55
2023-01-12T00:24:34.974Z,63.16
2023-01-12T00:27:07.691Z,62.71
2023-01-12T00:29:35.317Z,62.49
2023-01-12T00:32:03.616Z,62.14
2023-01-12T00:34:30.600Z,62.20
2023-01-12T00:36:59.774Z,62.39
2023-01-12T00:39:27.038Z,62.48
2023-01-12T00:42:12.405Z,62.07
2023-01-12T00:44:58.116Z,62.45
2023-01-12T00:47:25.140Z,62.82
2023-01-12T00:49:53.327Z,62.41
2023-01-12T00:52:30.359Z,62.40
2023-01-12T00:55:00.048Z,62.99
2023-01-12T00:57:28.673Z,63.22
2023-01-12T00:59:58.239Z,62.76
2023-01-12T01:02:25.835Z,62.78
2023-01-12T01:04:52.844Z,62.44
2023-01-12T01:07:21.835Z,63.09
2023-01-12T01:09:49.620Z,63.24
2023-01-12T01:12:17.289Z,63.56
2023-01-12T01:14:44.365Z,63.74
2023-01-12T01:17:11.389Z,63.21
2023-01-12T01:19:38.440Z,62.82
2023-01-12T01:22:05.385Z,63.18
2023-01-12T01:24:32.341Z,63.71
2023-01-12T01:26:59.443Z,63.00
2023-01-12T01:29:26.395Z,63.48
2023-01-12T01:31:55.364Z,64.21
2023-01-12T01:34:23.987Z,63.34
2023-01-12T01:36:51.082Z,64.00
2023-01-12T01:39:18.088Z,64.42
2023-01-12T01:41:45.106Z,65.01
2023-01-12T01:44:30.118Z,64.69
2023-01-12T01:46:59.322Z,64.69
2023-01-12T01:49:40.612Z,65.23
2023-01-12T01:52:15.335Z,64.88
2023-01-12T01:54:45.665Z,63.72
2023-01-12T01:57:14.294Z,64.46
2023-01-12T01:59:48.698Z,63.80
2023-01-12T02:02:17.176Z,65.09
2023-01-12T02:04:44.737Z,64.55
2023-01-12T02:07:11.872Z,64.69
2023-01-12T02:09:39.851Z,64.89
2023-01-12T02:12:27.562Z,64.67
2023-01-12T02:15:14.425Z,64.34
2023-01-12T02:18:18.357Z,65.01
2023-01-12T02:20:53.063Z,65.02
2023-01-12T02:23:22.873Z,65.16
2023-01-12T02:26:23.899Z,64.86
2023-01-12T02:29:02.991Z,64.29
2023-01-12T02:31:41.815Z,65.31
2023-01-12T02:34:30.458Z,64.58
2023-01-12T02:37:04.392Z,64.62
2023-01-12T02:39:39.072Z,64.39
2023-01-12T02:42:42.817Z,64.59
2023-01-12T02:45:22.179Z,64.85
2023-01-12T02:47:49.204Z,64.59
2023-01-12T02:50:27.639Z,65.06
2023-01-12T02:52:59.833Z,64.59
2023-01-12T02:55:29.546Z,64.17
2023-01-12T02:58:02.344Z,64.69
2023-01-12T03:00:32.632Z,63.95
2023-01-12T03:02:59.791Z,64.53
2023-01-12T03:05:26.993Z,64.13
2023-01-12T03:08:05.857Z,64.52
2023-01-12T03:10:52.012Z,64.15
2023-01-12T03:13:20.341Z,64.54
2023-01-12T03:15:53.182Z,64.92
2023-01-12T03:18:58.510Z,65.38
2023-01-12T03:21:43.208Z,64.88
2023-01-12T03:24:15.652Z,64.68
2023-01-12T03:26:48.800Z,64.99
2023-01-12T03:29:34.363Z,65.48
2023-01-12T03:32:01.794Z,64.80
2023-01-12T03:34:29.187Z,65.01
2023-01-12T03:37:27.577Z,65.61
2023-01-12T03:40:06.554Z,65.66
2023-01-12T03:42:47.481Z,65.65
2023-01-12T03:45:50.681Z,66.02
2023-01-12T03:48:43.317Z,65.21
2023-01-12T03:51:15.887Z,65.02
2023-01-12T03:53:47.630Z,65.41
2023-01-12T03:56:17.192Z,65.49
2023-01-12T03:58:44.909Z,65.37
2023-01-12T04:01:12.311Z,65.47
2023-01-12T04:03:40.233Z,66.20
2023-01-12T04:06:08.643Z,65.86
2023-01-12T04:08:36.730Z,66.01
2023-01-12T04:11:26.643Z,65.53
2023-01-12T04:13:53.681Z,66.16
2023-01-12T04:16:20.947Z,66.23
2023-01-12T04:18:48.134Z,65.63
2023-01-12T04:21:33.407Z,66.31
2023-01-12T04:24:06.547Z,66.00
2023-01-12T04:26:33.624Z,66.45
2023-01-12T04:29:00.527Z,66.08
2023-01-12T04:31:27.704Z,66.12
2023-01-12T04:33:54.738Z,66.13
2023-01-12T04:36:21.755Z,65.98
2023-01-12T04:38:48.662Z,65.82
2023-01-12T04:41:19.249Z,66.22
2023-01-12T04:43:47.096Z,65.96
2023-01-12T04:46:15.371Z,66.00
2023-01-12T04:48:44.203Z,65.99
2023-01-12T04:51:11.510Z,65.87
2023-01-12T04:53:38.646Z,66.07
2023-01-12T04:56:06.895Z,66.27
2023-01-12T04:58:35.143Z,65.99
2023-01-12T05:01:13.144Z,66.37
2023-01-12T05:03:40.610Z,66.34
2023-01-12T05:06:08.164Z,66.67
2023-01-12T05:08:54.678Z,66.55
2023-01-12T05:11:25.030Z,66.38
2023-01-12T05:13:51.992Z,66.48
2023-01-12T05:16:19.015Z,66.57
2023-01-12T05:18:46.344Z,66.34
2023-01-12T05:21:15.753Z,66.16
2023-01-12T05:23:42.792Z,66.22
2023-01-12T05:26:10.865Z,65.97
2023-01-12T05:28:37.988Z,66.08
2023-01-12T05:31:11.319Z,65.61
2023-01-12T05:33:42.813Z,65.84
2023-01-12T05:36:14.712Z,65.96
2023-01-12T05:38:42.391Z,65.56
2023-01-12T05:41:12.001Z,65.94
2023-01-12T05:43:51.054Z,66.14
2023-01-12T05:46:20.943Z,66.02
2023-01-12T05:48:52.646Z,66.12
2023-01-12T05:51:19.961Z,65.99
2023-01-12T05:53:47.023Z,65.93
2023-01-12T05:56:21.528Z,66.51
2023-01-12T05:59:00.099Z,66.28
2023-01-12T06:01:29.486Z,66.20
2023-01-12T06:04:00.066Z,66.06
2023-01-12T06:06:31.389Z,66.04
2023-01-12T06:08:59.706Z,65.61
2023-01-12T06:11:45.489Z,65.41
2023-01-12T06:14:12.375Z,65.57
2023-01-12T06:16:41.695Z,65.29
2023-01-12T06:19:12.336Z,65.36
2023-01-12T06:21:40.584Z,65.36
2023-01-12T06:24:08.121Z,65.38
2023-01-12T06:26:35.379Z,65.69
2023-01-12T06:29:03.661Z,65.28
2023-01-12T06:31:31.003Z,65.54
2023-01-12T06:33:58.162Z,65.69
2023-01-12T06:36:25.256Z,65.63
2023-01-12T06:38:52.228Z,65.66
2023-01-12T06:41:38.024Z,65.18
2023-01-12T06:44:05.158Z,65.63
2023-01-12T06:46:32.176Z,65.62
2023-01-12T06:48:59.511Z,65.67
2023-01-12T06:51:30.198Z,65.58
2023-01-12T06:53:57.264Z,65.34
2023-01-12T06:56:24.318Z,65.31
2023-01-12T06:58:51.265Z,65.32
2023-01-12T07:01:18.419Z,65.49
2023-01-12T07:03:45.525Z,65.16
2023-01-12T07:06:14.480Z,64.65
2023-01-12T07:08:41.515Z,65.07
2023-01-12T07:11:08.378Z,64.81
2023-01-12T07:13:35.701Z,64.71
2023-01-12T07:16:03.040Z,64.83
2023-01-12T07:18:31.232Z,64.50
2023-01-12T07:20:58.464Z,64.71
2023-01-12T07:23:25.710Z,64.69
2023-01-12T07:25:52.675Z,64.51
2023-01-12T07:28:19.621Z,64.25
2023-01-12T07:30:46.826Z,63.78
2023-01-12T07:33:16.666Z,62.80
2023-01-12T07:35:45.530Z,61.98
2023-01-12T07:38:12.526Z,62.19
2023-01-12T07:40:39.464Z,62.04
2023-01-12T07:43:08.505Z,60.69
2023-01-12T07:45:36.659Z,58.66
2023-01-12T07:48:03.809Z,57.16
2023-01-12T07:50:30.709Z,54.49
2023-01-12T07:53:02.163Z,54.26
2023-01-12T07:55:31.192Z,55.31
2023-01-12T07:58:03.420Z,55.46
2023-01-12T08:00:31.316Z,56.21
2023-01-12T08:03:10.145Z,55.96
2023-01-12T08:05:38.935Z,56.29
2023-01-12T08:08:07.006Z,55.86
2023-01-12T08:10:34.138Z,55.89
2023-01-12T08:13:01.044Z,55.56
2023-01-12T08:15:33.392Z,54.95
2023-01-12T08:18:08.390Z,55.24
2023-01-12T08:20:36.770Z,55.84
2023-01-12T08:23:21.717Z,56.22
2023-01-12T08:25:56.604Z,56.09
2023-01-12T08:28:31.402Z,55.55
2023-01-12T08:30:58.248Z,55.65
2023-01-12T08:33:41.107Z,55.85
2023-01-12T08:38:38.371Z,51.02
2023-01-12T08:41:24.251Z,43.37
2023-01-12T08:44:03.561Z,37.70
2023-01-12T08:46:38.791Z,41.43
2023-01-12T08:49:11.460Z,38.43
2023-01-12T08:51:39.752Z,31.00
2023-01-12T08:54:09.357Z,27.61
2023-01-12T08:56:37.201Z,24.32
2023-01-12T08:59:04.759Z,24.40
2023-01-12T09:01:31.922Z,26.11
2023-01-12T09:03:59.905Z,24.53
2023-01-12T09:06:30.199Z,25.71
2023-01-12T09:08:59.497Z,27.40
2023-01-12T09:11:28.942Z,31.49
2023-01-12T09:13:56.447Z,33.33
2023-01-12T09:16:23.368Z,33.72
2023-01-12T09:18:50.316Z,30.35
2023-01-12T09:21:21.721Z,24.05
2023-01-12T09:23:52.805Z,21.01
2023-01-12T09:26:22.388Z,20.79
2023-01-12T09:28:51.590Z,19.80
2023-01-12T09:31:23.577Z,19.58
2023-01-12T09:33:50.644Z,17.39
2023-01-12T09:36:20.699Z,17.08
2023-01-12T09:38:48.353Z,15.44
2023-01-12T09:41:40.244Z,15.92
2023-01-12T09:44:52.100Z,15.95
2023-01-12T09:47:34.912Z,16.18
2023-01-12T09:50:16.812Z,14.26
2023-01-12T09:52:52.914Z,14.75
2023-01-12T09:55:23.453Z,14.28
2023-01-12T09:58:28.149Z,14.24
2023-01-12T10:00:57.404Z,14.74
2023-01-12T10:03:31.942Z,13.55
2023-01-12T10:06:01.961Z,13.70
2023-01-12T10:08:56.753Z,12.30
2023-01-12T10:11:38.565Z,12.15
2023-01-12T10:17:25.676Z,11.36
2023-01-12T10:20:23.948Z,11.30
2023-01-12T10:22:54.898Z,11.12
2023-01-12T10:25:30.920Z,10.23
2023-01-12T10:27:59.868Z,11.19
2023-01-12T10:30:32.581Z,10.81
2023-01-12T10:33:21.460Z,11.65
2023-01-12T10:36:08.732Z,11.29
2023-01-12T10:38:38.606Z,10.86
2023-01-12T10:41:20.942Z,9.69
2023-01-12T10:44:15.551Z,10.70
2023-01-12T10:46:43.037Z,11.46
2023-01-12T10:49:19.867Z,9.75
2023-01-12T10:52:02.361Z,9.84
2023-01-12T10:54:34.663Z,9.67
2023-01-12T10:57:16.907Z,9.92
2023-01-12T10:59:52.183Z,9.20
2023-01-12T11:02:19.411Z,9.94
2023-01-12T11:04:52.509Z,9.13
2023-01-12T11:07:26.564Z,8.97
2023-01-12T11:09:58.493Z,9.08
2023-01-12T11:12:36.031Z,8.43
2023-01-12T11:15:15.136Z,9.02
2023-01-12T11:18:03.685Z,9.17
2023-01-12T11:20:35.112Z,9.20
2023-01-12T11:23:05.447Z,10.03
2023-01-12T11:25:42.338Z,12.09
2023-01-12T11:28:24.268Z,10.40
2023-01-12T11:31:20.848Z,10.53
2023-01-12T11:33:57.586Z,14.53
2023-01-12T11:36:35.241Z,18.32
2023-01-12T11:39:07.096Z,20.74
2023-01-12T11:42:18.634Z,22.17
2023-01-12T11:45:13.257Z,23.41
2023-01-12T11:47:44.839Z,24.37
2023-01-12T11:50:18.387Z,26.61
2023-01-12T11:52:46.102Z,26.66
2023-01-12T11:55:21.853Z,25.95
2023-01-12T11:58:05.260Z,27.86
2023-01-12T12:00:35.361Z,27.48
2023-01-12T12:03:28.314Z,28.80
2023-01-12T12:06:22.746Z,29.40
2023-01-12T12:09:16.498Z,30.31
2023-01-12T12:11:43.641Z,29.27
2023-01-12T12:14:29.186Z,30.07
2023-01-12T12:17:14.788Z,29.89
2023-01-12T12:20:00.224Z,30.82
2023-01-12T12:22:27.100Z,30.02
2023-01-12T12:25:03.247Z,30.79
2023-01-12T12:27:58.704Z,31.41
2023-01-12T12:30:39.248Z,30.73
2023-01-12T12:33:24.965Z,31.16
2023-01-12T12:36:11.430Z,31.62
2023-01-12T12:39:07.381Z,31.11
2023-01-12T12:42:19.111Z,32.33
2023-01-12T12:45:18.131Z,31.37
2023-01-12T12:48:07.037Z,32.00
2023-01-12T12:51:13.321Z,31.92
2023-01-12T12:53:46.347Z,32.20
2023-01-12T12:56:19.307Z,32.03
2023-01-12T12:58:50.940Z,32.39
2023-01-12T13:01:20.697Z,32.07
2023-01-12T13:03:49.077Z,31.78
2023-01-12T13:06:24.793Z,32.31
2023-01-12T13:08:57.209Z,32.64
2023-01-12T13:11:47.036Z,32.00
2023-01-12T13:14:39.618Z,32.46
2023-01-12T13:17:18.728Z,32.49
2023-01-12T13:19:47.193Z,32.86
2023-01-12T13:22:42.820Z,32.20
2023-01-12T13:25:15.931Z,32.61
2023-01-12T13:28:00.707Z,32.08
2023-01-12T13:30:30.393Z,33.82
2023-01-12T13:33:16.068Z,33.19
2023-01-12T13:35:46.639Z,33.34
2023-01-12T13:38:22.493Z,32.81
2023-01-12T13:40:55.623Z,32.86
2023-01-12T13:43:27.995Z,33.19
2023-01-12T13:46:26.399Z,33.03
2023-01-12T13:51:46.293Z,33.37
2023-01-12T13:54:16.003Z,32.85
2023-01-12T13:56:52.510Z,33.20
2023-01-12T13:59:19.776Z,33.19
2023-01-12T14:01:48.847Z,33.52
2023-01-12T14:04:34.173Z,33.88
2023-01-12T14:07:09.629Z,34.11
2023-01-12T14:10:05.928Z,34.68
2023-01-12T14:12:38.644Z,35.01
2023-01-12T14:15:24.119Z,35.23
2023-01-12T14:18:04.799Z,35.34
2023-01-12T14:20:40.162Z,35.79
2023-01-12T14:23:35.766Z,36.20
2023-01-12T14:26:14.693Z,36.24
2023-01-12T14:28:47.450Z,36.62
2023-01-12T14:31:41.796Z,37.43
2023-01-12T14:34:33.024Z,38.08
2023-01-12T14:37:05.135Z,40.01
2023-01-12T14:39:41.165Z,41.39
2023-01-12T14:42:40.429Z,42.18
2023-01-12T14:45:48.247Z,43.30
2023-01-12T14:48:34.753Z,43.70
2023-01-12T14:51:12.597Z,43.92
2023-01-12T14:53:42.736Z,43.49
2023-01-12T14:56:25.365Z,44.82
2023-01-12T14:58:53.443Z,43.55
2023-01-12T15:01:35.988Z,42.94
2023-01-12T15:04:05.963Z,42.44
2023-01-12T15:06:39.863Z,42.64
2023-01-12T15:09:24.630Z,42.78
2023-01-12T15:11:52.932Z,42.00
2023-01-12T15:14:29.230Z,42.18
2023-01-12T15:17:15.204Z,42.16
2023-01-12T15:20:01.153Z,42.49
2023-01-12T15:22:47.554Z,42.39
2023-01-12T15:25:36.327Z,42.82
2023-01-12T15:28:05.980Z,42.88
2023-01-12T15:30:37.926Z,43.29
2023-01-12T15:33:05.858Z,43.28
2023-01-12T15:35:33.685Z,43.24
2023-01-12T15:38:01.432Z,43.21
2023-01-12T15:40:28.613Z,43.22
2023-01-12T15:42:59.965Z,43.37
2023-01-12T15:45:37.612Z,43.78
2023-01-12T15:48:08.702Z,44.10
2023-01-12T15:50:43.193Z,43.97
2023-01-12T15:53:20.362Z,45.22
2023-01-12T15:55:48.025Z,44.47
2023-01-12T15:58:19.728Z,45.82
2023-01-12T16:00:47.135Z,45.39
2023-01-12T16:03:38.211Z,45.42
2023-01-12T16:06:01.987Z,46.00
2023-01-12T16:08:29.132Z,46.44
2023-01-12T16:11:09.429Z,46.38
2023-01-12T16:13:36.508Z,46.38
2023-01-12T16:16:03.750Z,46.58
2023-01-12T16:18:33.534Z,46.41
2023-01-12T16:21:01.716Z,46.88
2023-01-12T16:23:29.462Z,47.22
2023-01-12T16:25:58.307Z,47.53
2023-01-12T16:28:26.080Z,47.02
2023-01-12T16:30:55.108Z,47.99
2023-01-12T16:33:22.665Z,48.35
2023-01-12T16:35:49.725Z,48.41
2023-01-12T16:38:21.248Z,48.61
2023-01-12T16:40:51.443Z,48.37
2023-01-12T16:43:21.133Z,47.82
2023-01-12T16:45:48.501Z,48.87
2023-01-12T16:48:16.171Z,48.92
2023-01-12T16:50:44.218Z,49.39
2023-01-12T16:53:14.832Z,49.96
2023-01-12T16:55:44.991Z,50.02
2023-01-12T16:58:11.964Z,48.71
2023-01-12T17:00:38.964Z,50.01
2023-01-12T17:03:06.676Z,50.06
2023-01-12T17:05:33.671Z,49.81
2023-01-12T17:08:00.746Z,50.47
2023-01-12T17:10:51.967Z,50.47
2023-01-12T17:13:19.293Z,50.63
2023-01-12T17:15:46.928Z,50.44
2023-01-12T17:18:14.094Z,50.67
2023-01-12T17:20:44.074Z,51.31
2023-01-12T17:23:11.726Z,51.03
2023-01-12T17:25:38.637Z,51.17
2023-01-12T17:28:07.104Z,50.71
2023-01-12T17:30:34.319Z,51.65
2023-01-12T17:33:02.048Z,51.45
2023-01-12T17:35:32.361Z,51.32
2023-01-12T17:38:03.235Z,51.99
2023-01-12T17:40:30.672Z,51.94
2023-01-12T17:43:03.987Z,52.28
2023-01-12T17:45:31.748Z,51.79
2023-01-12T17:47:59.712Z,51.99
2023-01-12T17:50:27.113Z,51.45
2023-01-12T17:52:54.349Z,51.98
2023-01-12T17:55:21.482Z,52.31
2023-01-12T17:57:48.556Z,52.21
2023-01-12T18:00:16.485Z,51.79
2023-01-12T18:02:43.934Z,51.83
2023-01-12T18:05:11.423Z,51.80
2023-01-12T18:07:39.749Z,51.34
2023-01-12T18:10:11.675Z,52.77
2023-01-12T18:12:39.538Z,51.81
2023-01-12T18:15:14.123Z,52.65
2023-01-12T18:17:41.073Z,51.51
2023-01-12T18:20:08.490Z,50.96
2023-01-12T18:22:35.903Z,51.66
2023-01-12T18:25:05.347Z,51.11
2023-01-12T18:27:35.452Z,51.44
2023-01-12T18:30:02.778Z,51.91
2023-01-12T18:32:29.670Z,51.25
2023-01-12T18:35:02.894Z,51.56
2023-01-12T18:37:29.998Z,51.73
2023-01-12T18:39:56.869Z,51.43
2023-01-12T18:42:42.394Z,52.03
2023-01-12T18:45:09.927Z,52.10
2023-01-12T18:47:55.750Z,52.47
2023-01-12T18:50:41.411Z,52.05
2023-01-12T18:53:25.076Z,52.27
2023-01-12T18:55:56.575Z,52.04
2023-01-12T18:58:28.321Z,51.85
2023-01-12T19:00:59.047Z,51.22
2023-01-12T19:03:25.984Z,51.60
2023-01-12T19:05:53.169Z,51.44
2023-01-12T19:08:29.577Z,50.90
2023-01-12T19:11:07.284Z,51.20
2023-01-12T19:13:52.799Z,50.88
2023-01-12T19:16:38.261Z,50.82
2023-01-12T19:19:05.833Z,50.75
2023-01-12T19:21:51.211Z,50.35
2023-01-12T19:24:37.091Z,50.43
2023-01-12T19:27:22.745Z,50.36
2023-01-12T19:29:50.628Z,50.23
2023-01-12T19:32:18.250Z,50.29
2023-01-12T19:34:46.771Z,50.40
2023-01-12T19:37:13.826Z,50.36
2023-01-12T19:40:19.131Z,50.27
2023-01-12T19:43:04.648Z,50.08
2023-01-12T19:45:31.759Z,49.83
2023-01-12T19:47:58.968Z,50.20
2023-01-12T19:50:26.041Z,49.85
2023-01-12T19:52:53.348Z,49.87
2023-01-12T19:55:20.525Z,49.87
2023-01-12T19:57:47.916Z,49.79
2023-01-12T20:00:16.867Z,50.15
2023-01-12T20:02:44.599Z,49.94
2023-01-12T20:05:13.573Z,49.80
2023-01-12T20:07:40.724Z,49.53
2023-01-12T20:10:09.151Z,49.31
2023-01-12T20:12:36.165Z,49.27
2023-01-12T20:15:03.632Z,49.50
2023-01-12T20:17:33.756Z,49.33
2023-01-12T20:20:01.927Z,49.35
2023-01-12T20:22:29.047Z,49.63
2023-01-12T20:25:01.152Z,49.25
2023-01-12T20:27:28.226Z,49.00
2023-01-12T20:29:55.193Z,49.12
2023-01-12T20:32:22.686Z,49.07
2023-01-12T20:34:55.894Z,48.84
2023-01-12T20:37:22.999Z,48.93
2023-01-12T20:39:53.267Z,48.97
2023-01-12T20:42:20.345Z,48.71
2023-01-12T20:44:47.312Z,48.80
2023-01-12T20:47:14.563Z,48.77
2023-01-12T20:49:41.554Z,48.68
2023-01-12T20:52:09.119Z,48.84
2023-01-12T20:54:38.719Z,48.60
2023-01-12T20:57:05.775Z,48.83
2023-01-12T20:59:33.047Z,48.87
2023-01-12T21:02:00.199Z,48.63
2023-01-12T21:04:27.787Z,48.73
2023-01-12T21:06:58.474Z,48.37
2023-01-12T21:09:25.967Z,48.26
2023-01-12T21:11:52.996Z,48.28
2023-01-12T21:14:20.109Z,48.20
2023-01-12T21:16:47.261Z,48.11
2023-01-12T21:19:15.059Z,48.27
2023-01-12T21:21:41.998Z,48.25
2023-01-12T21:24:09.519Z,48.34
2023-01-12T21:26:37.126Z,48.29
2023-01-12T21:29:04.333Z,48.01
2023-01-12T21:31:36.589Z,48.33
2023-01-12T21:34:04.228Z,48.07
2023-01-12T21:36:33.389Z,48.04
2023-01-12T21:39:00.758Z,47.81
2023-01-12T21:41:27.986Z,47.90
2023-01-12T21:43:55.107Z,47.55
2023-01-12T21:46:24.777Z,47.10
2023-01-12T21:48:51.916Z,46.86
2023-01-12T21:51:19.469Z,46.58
2023-01-12T21:53:49.818Z,46.55
2023-01-12T21:56:17.263Z,46.50
2023-01-12T21:58:48.666Z,45.77
2023-01-12T22:01:16.299Z,45.72
2023-01-12T22:03:44.478Z,46.09
2023-01-12T22:06:13.355Z,46.15
2023-01-12T22:08:42.096Z,45.88
2023-01-12T22:11:11.842Z,46.31
2023-01-12T22:13:39.435Z,46.37
2023-01-12T22:16:12.223Z,46.59
2023-01-12T22:18:40.242Z,46.92
2023-01-12T22:21:09.138Z,46.77
2023-01-12T22:23:37.665Z,46.61
2023-01-12T22:26:09.887Z,46.81
2023-01-12T22:28:40.528Z,46.91
2023-01-12T22:31:18.792Z,47.06
2023-01-12T22:34:04.052Z,47.16
2023-01-12T22:36:34.859Z,47.56
2023-01-12T22:39:02.796Z,47.61
2023-01-12T22:41:29.914Z,47.76
2023-01-12T22:43:56.979Z,47.56
2023-01-12T22:46:31.544Z,47.45
2023-01-12T22:49:08.034Z,47.65
2023-01-12T22:51:35.811Z,47.62
2023-01-12T22:54:14.416Z,47.50
2023-01-12T22:56:54.031Z,47.83
2023-01-12T22:59:21.701Z,47.79
2023-01-12T23:02:16.774Z,48.06
2023-01-12T23:04:50.204Z,48.13
2023-01-12T23:07:29.490Z,48.26
2023-01-12T23:10:02.235Z,48.14
2023-01-12T23:12:32.154Z,48.48
2023-01-12T23:15:04.769Z,48.79
2023-01-12T23:17:33.212Z,48.64
2023-01-12T23:20:00.712Z,48.65
2023-01-12T23:22:30.728Z,48.56
2023-01-12T23:24:57.698Z,48.82
2023-01-12T23:27:24.989Z,48.83
2023-01-12T23:29:52.649Z,48.84
2023-01-12T23:32:19.799Z,48.89
2023-01-12T23:34:46.791Z,48.84
2023-01-12T23:37:13.812Z,48.90
2023-01-12T23:39:41.220Z,48.89
2023-01-12T23:42:08.268Z,49.24
2023-01-12T23:44:35.330Z,48.95
2023-01-12T23:47:06.551Z,49.47
2023-01-12T23:49:33.847Z,49.71
2023-01-12T23:52:00.901Z,49.89
2023-01-12T23:54:28.123Z,49.58
2023-01-12T23:56:55.709Z,49.82
2023-01-12T23:59:23.238Z,49.89
